createdAt,value
2019-05-10T00:03:25.134Z,19.00
2019-05-10T00:09:22.636Z,18.85
2019-05-10T00:12:05.193Z,19.37
2019-05-10T00:14:53.690Z,20.72
2019-05-10T00:17:29.768Z,23.05
2019-05-10T00:19:59.436Z,26.73
2019-05-10T00:22:29.802Z,23.18
2019-05-10T00:25:08.538Z,21.25
2019-05-10T00:27:41.866Z,18.17
2019-05-10T00:30:13.657Z,20.48
2019-05-10T00:32:48.724Z,28.20
2019-05-10T00:58:10.887Z,23.90
2019-05-10T01:00:46.447Z,26.30
2019-05-10T01:03:21.105Z,19.35
2019-05-10T01:05:52.774Z,24.05
2019-05-10T01:11:06.762Z,15.88
2019-05-10T01:13:38.523Z,18.65
2019-05-10T01:16:14.253Z,22.50
2019-05-10T01:18:42.994Z,24.52
2019-05-10T01:21:42.448Z,32.75
2019-05-10T01:24:13.862Z,24.37
2019-05-10T01:26:58.560Z,23.70
2019-05-10T01:29:33.773Z,26.82
2019-05-10T01:32:09.008Z,25.00
2019-05-10T01:35:09.016Z,25.43
2019-05-10T01:37:38.897Z,23.25
2019-05-10T01:40:43.835Z,30.23
2019-05-10T01:43:22.938Z,17.82
2019-05-10T01:45:57.258Z,20.57
2019-05-10T01:48:34.604Z,30.20
2019-05-10T01:51:09.263Z,24.63
2019-05-10T01:53:39.899Z,20.95
2019-05-10T01:56:14.280Z,23.10
2019-05-10T01:58:44.013Z,21.95
2019-05-10T02:01:15.790Z,27.10
2019-05-10T02:03:45.294Z,25.40
2019-05-10T02:06:20.097Z,20.85
2019-05-10T02:08:51.977Z,25.50
2019-05-10T02:11:25.046Z,30.52
2019-05-10T02:14:03.723Z,23.42
2019-05-10T02:16:32.716Z,23.77
2019-05-10T02:19:05.256Z,30.37
2019-05-10T02:21:40.198Z,29.55
2019-05-10T02:24:12.261Z,34.90
2019-05-10T02:26:47.898Z,29.32
2019-05-10T02:29:19.235Z,36.13
2019-05-10T02:31:54.893Z,27.75
2019-05-10T02:34:27.329Z,26.02
2019-05-10T02:37:08.015Z,29.63
2019-05-10T02:39:38.996Z,30.75
2019-05-10T02:42:08.244Z,30.00
2019-05-10T02:44:45.071Z,33.63
2019-05-10T02:47:17.732Z,31.35
2019-05-10T02:49:48.647Z,26.37
2019-05-10T02:52:20.389Z,34.40
2019-05-10T02:54:52.076Z,32.83
2019-05-10T03:00:10.414Z,34.90
2019-05-10T03:02:49.433Z,39.35
2019-05-10T03:05:20.110Z,37.50
2019-05-10T03:07:52.944Z,46.40
2019-05-10T03:10:22.865Z,44.33
2019-05-10T03:12:57.719Z,41.18
2019-05-10T03:15:38.658Z,40.67
2019-05-10T03:18:10.424Z,41.88
2019-05-10T03:20:48.593Z,47.38
2019-05-10T03:23:20.466Z,44.60
2019-05-10T03:25:49.237Z,42.58
2019-05-10T03:28:26.936Z,42.88
2019-05-10T03:30:58.439Z,43.23
2019-05-10T03:33:27.103Z,42.93
2019-05-10T03:35:56.905Z,36.15
2019-05-10T03:38:28.848Z,44.35
2019-05-10T03:40:59.775Z,35.08
2019-05-10T03:43:29.409Z,40.12
2019-05-10T03:46:22.166Z,33.20
2019-05-10T03:48:51.462Z,31.73
2019-05-10T03:51:23.197Z,31.62
2019-05-10T03:56:23.845Z,36.23
2019-05-10T03:59:05.222Z,42.40
2019-05-10T04:01:49.438Z,47.75
2019-05-10T04:04:23.885Z,41.77
2019-05-10T04:06:55.042Z,49.13
2019-05-10T04:09:32.296Z,43.30
2019-05-10T04:12:07.054Z,42.93
2019-05-10T04:14:42.198Z,50.33
2019-05-10T04:17:27.959Z,57.67
2019-05-10T04:19:58.741Z,56.35
2019-05-10T04:22:28.757Z,60.20
2019-05-10T04:24:57.353Z,55.73
2019-05-10T04:27:33.578Z,62.08
2019-05-10T04:30:09.821Z,57.38
2019-05-10T04:32:39.008Z,59.20
2019-05-10T04:35:13.971Z,55.28
2019-05-10T04:37:46.224Z,56.15
2019-05-10T04:40:20.965Z,57.98
2019-05-10T04:42:59.661Z,48.23
2019-05-10T04:45:28.669Z,44.27
2019-05-10T04:48:05.420Z,46.10
2019-05-10T04:50:35.063Z,44.53
2019-05-10T04:53:10.001Z,42.35
2019-05-10T04:55:40.704Z,45.23
2019-05-10T04:58:15.201Z,48.13
2019-05-10T05:00:44.253Z,42.85
2019-05-10T05:03:17.746Z,44.48
2019-05-10T05:05:49.480Z,45.08
2019-05-10T05:08:21.036Z,41.68
2019-05-10T05:10:52.541Z,48.98
2019-05-10T05:13:41.388Z,46.95
2019-05-10T05:16:16.106Z,41.83
2019-05-10T05:18:50.370Z,40.60
2019-05-10T05:21:26.439Z,36.17
2019-05-10T05:24:04.977Z,36.40
2019-05-10T05:26:36.836Z,34.75
2019-05-10T05:29:05.418Z,37.00
2019-05-10T05:31:38.689Z,34.18
2019-05-10T05:34:13.160Z,33.10
2019-05-10T05:36:46.752Z,30.32
2019-05-10T05:39:24.953Z,27.87
2019-05-10T05:41:56.775Z,30.12
2019-05-10T05:48:40.122Z,32.05
2019-05-10T05:51:03.178Z,29.95
2019-05-10T05:53:59.347Z,26.70
2019-05-10T05:56:33.409Z,30.10
2019-05-10T05:59:08.930Z,27.58
2019-05-10T06:01:42.863Z,24.92
2019-05-10T06:04:12.801Z,26.40
2019-05-10T06:06:44.727Z,27.90
2019-05-10T06:09:22.470Z,30.95
2019-05-10T06:11:54.084Z,25.12
2019-05-10T06:16:54.251Z,24.43
2019-05-10T06:19:29.779Z,25.77
2019-05-10T06:22:38.167Z,30.00
2019-05-10T06:25:28.823Z,26.65
2019-05-10T06:28:25.371Z,25.32
2019-05-10T06:30:45.089Z,25.00
2019-05-10T06:33:15.964Z,23.65
2019-05-10T06:35:51.043Z,22.58
2019-05-10T06:38:42.750Z,22.30
2019-05-10T06:41:50.126Z,24.18
2019-05-10T06:44:44.064Z,25.60
2019-05-10T06:47:21.704Z,21.60
2019-05-10T06:49:52.018Z,27.77
2019-05-10T06:52:27.829Z,23.40
2019-05-10T06:58:00.665Z,20.70
2019-05-10T07:00:44.681Z,25.12
2019-05-10T07:03:11.927Z,23.90
2019-05-10T07:05:43.542Z,26.12
2019-05-10T07:11:08.506Z,21.48
2019-05-10T07:14:00.309Z,22.32
2019-05-10T07:19:40.855Z,11.05
2019-05-10T07:22:11.078Z,23.02
2019-05-10T07:24:43.935Z,16.40
2019-05-10T07:27:18.483Z,16.00
2019-05-10T07:29:47.316Z,14.75
2019-05-10T07:32:16.479Z,12.18
2019-05-10T07:34:48.783Z,17.62
2019-05-10T07:37:23.609Z,10.85
2019-05-10T07:40:05.587Z,13.80
2019-05-10T07:42:34.156Z,14.93
2019-05-10T07:45:07.198Z,10.50
2019-05-10T07:47:41.517Z,10.98
2019-05-10T07:50:11.665Z,8.85
2019-05-10T07:52:46.261Z,7.80
2019-05-10T07:55:28.064Z,7.17
2019-05-10T07:57:59.148Z,10.90
2019-05-10T08:00:26.478Z,11.25
2019-05-10T08:03:07.567Z,11.35
2019-05-10T08:05:33.370Z,8.80
2019-05-10T08:08:11.031Z,8.30
2019-05-10T08:10:42.288Z,6.83
2019-05-10T08:13:21.221Z,9.03
2019-05-10T08:15:55.373Z,9.45
2019-05-10T08:18:25.527Z,7.67
2019-05-10T08:21:01.521Z,5.28
2019-05-10T08:23:30.683Z,6.25
2019-05-10T08:26:04.524Z,5.33
2019-05-10T08:28:52.811Z,7.17
2019-05-10T08:31:56.082Z,6.87
2019-05-10T08:34:35.680Z,8.28
2019-05-10T08:37:19.485Z,6.87
2019-05-10T08:39:49.496Z,5.47
2019-05-10T08:42:34.318Z,4.78
2019-05-10T08:44:54.113Z,4.87
2019-05-10T08:47:27.317Z,6.17
2019-05-10T08:50:10.407Z,4.95
2019-05-10T08:52:31.636Z,4.78
2019-05-10T08:55:12.227Z,5.90
2019-05-10T08:57:49.092Z,7.22
2019-05-10T09:00:40.232Z,4.70
2019-05-10T09:02:52.438Z,4.92
2019-05-10T09:05:31.882Z,8.25
2019-05-10T09:08:11.602Z,6.60
2019-05-10T09:10:42.146Z,6.03
2019-05-10T09:13:16.106Z,7.20
2019-05-10T09:15:56.084Z,6.35
2019-05-10T09:18:23.747Z,7.03
2019-05-10T09:21:08.469Z,8.45
2019-05-10T09:23:36.382Z,9.60
2019-05-10T09:26:12.011Z,7.33
2019-05-10T09:28:47.497Z,7.35
2019-05-10T09:31:21.994Z,6.25
2019-05-10T09:34:23.763Z,7.65
2019-05-10T09:36:52.827Z,4.37
2019-05-10T09:39:32.100Z,4.62
2019-05-10T09:42:08.267Z,5.22
2019-05-10T09:44:34.176Z,6.30
2019-05-10T09:47:39.328Z,4.50
2019-05-10T09:50:41.440Z,3.80
2019-05-10T09:53:12.670Z,5.72
2019-05-10T09:55:48.968Z,4.87
2019-05-10T09:58:14.351Z,4.55
2019-05-10T10:00:51.605Z,6.65
2019-05-10T10:03:43.101Z,4.72
2019-05-10T10:06:13.364Z,5.20
2019-05-10T10:09:24.499Z,6.03
2019-05-10T10:12:32.961Z,4.67
2019-05-10T10:15:18.664Z,7.12
2019-05-10T10:17:49.471Z,4.90
2019-05-10T10:20:20.943Z,2.40
2019-05-10T10:25:29.749Z,5.47
2019-05-10T10:28:08.334Z,5.22
2019-05-10T10:30:37.701Z,7.67
2019-05-10T10:33:17.835Z,11.97
2019-05-10T10:35:49.637Z,9.75
2019-05-10T10:38:18.488Z,10.53
2019-05-10T10:40:50.148Z,12.05
2019-05-10T10:43:27.220Z,13.70
2019-05-10T10:45:57.386Z,10.23
2019-05-10T10:48:28.309Z,12.85
2019-05-10T10:51:15.374Z,15.58
2019-05-10T10:53:54.443Z,14.47
2019-05-10T10:56:27.643Z,14.20
2019-05-10T10:59:00.782Z,12.47
2019-05-10T11:01:49.863Z,11.93
2019-05-10T11:04:16.267Z,14.87
2019-05-10T11:06:46.824Z,13.15
2019-05-10T11:09:22.434Z,14.10
2019-05-10T11:11:54.217Z,15.45
2019-05-10T11:14:31.937Z,12.75
2019-05-10T11:17:01.179Z,14.15
2019-05-10T11:19:35.694Z,13.70
2019-05-10T11:22:13.649Z,16.85
2019-05-10T11:24:53.409Z,19.85
2019-05-10T11:27:20.989Z,14.40
2019-05-10T11:30:00.862Z,16.82
2019-05-10T11:32:32.097Z,14.30
2019-05-10T11:35:05.399Z,16.00
2019-05-10T11:37:36.629Z,11.03
2019-05-10T11:40:27.771Z,12.45
2019-05-10T11:42:55.146Z,11.00
2019-05-10T11:45:26.140Z,11.90
2019-05-10T11:48:04.415Z,11.05
2019-05-10T11:50:35.973Z,10.20
2019-05-10T11:53:13.383Z,10.93
2019-05-10T11:55:44.541Z,8.80
2019-05-10T11:58:23.501Z,10.70
2019-05-10T12:00:59.460Z,9.28
2019-05-10T12:03:26.870Z,9.45
2019-05-10T12:06:12.110Z,11.53
2019-05-10T12:08:41.838Z,13.53
2019-05-10T12:11:25.446Z,13.30
2019-05-10T12:13:52.854Z,14.13
2019-05-10T12:16:22.002Z,12.28
2019-05-10T12:19:06.510Z,12.20
2019-05-10T12:22:04.556Z,12.55
2019-05-10T12:24:57.273Z,13.50
2019-05-10T12:27:22.578Z,11.73
2019-05-10T12:29:55.886Z,10.08
2019-05-10T12:32:55.685Z,13.38
2019-05-10T12:36:00.825Z,13.15
2019-05-10T12:38:38.435Z,12.45
2019-05-10T12:41:23.224Z,11.05
2019-05-10T12:44:26.407Z,10.98
2019-05-10T12:46:56.998Z,12.80
2019-05-10T12:49:28.579Z,13.93
2019-05-10T12:52:03.978Z,15.53
2019-05-10T12:54:38.547Z,16.48
2019-05-10T12:57:13.380Z,16.35
2019-05-10T12:59:44.998Z,15.60
2019-05-10T13:02:19.803Z,16.87
2019-05-10T13:04:54.445Z,17.90
2019-05-10T13:07:28.854Z,15.95
2019-05-10T13:10:03.783Z,16.45
2019-05-10T13:12:49.649Z,17.15
2019-05-10T13:15:24.690Z,16.93
2019-05-10T13:17:53.052Z,17.12
2019-05-10T13:20:24.890Z,17.32
2019-05-10T13:22:56.831Z,20.37
2019-05-10T13:26:01.502Z,17.20
2019-05-10T13:28:34.726Z,18.15
2019-05-10T13:31:17.157Z,18.35
2019-05-10T13:33:47.831Z,14.58
2019-05-10T13:36:19.568Z,15.25
2019-05-10T13:38:57.593Z,15.38
2019-05-10T13:41:26.639Z,15.23
2019-05-10T13:43:59.000Z,16.23
2019-05-10T13:46:31.853Z,16.60
2019-05-10T13:49:16.503Z,15.72
2019-05-10T13:51:48.990Z,14.05
2019-05-10T13:54:25.500Z,15.08
2019-05-10T13:57:02.565Z,15.40
2019-05-10T13:59:38.954Z,14.65
2019-05-10T14:02:40.777Z,13.55
2019-05-10T14:05:17.722Z,16.77
2019-05-10T14:07:51.942Z,13.50
2019-05-10T14:10:49.230Z,14.03
2019-05-10T14:13:18.605Z,15.98
2019-05-10T14:16:19.502Z,13.10
2019-05-10T14:19:22.973Z,16.37
2019-05-10T14:21:56.269Z,13.70
2019-05-10T14:24:28.578Z,13.83
2019-05-10T14:26:59.832Z,13.70
2019-05-10T14:29:34.349Z,13.05
2019-05-10T14:32:04.614Z,14.85
2019-05-10T14:34:38.059Z,13.53
2019-05-10T14:37:19.291Z,12.78
2019-05-10T14:39:56.463Z,14.98
2019-05-10T14:42:33.571Z,12.53
2019-05-10T14:45:06.903Z,13.50
2019-05-10T14:47:47.784Z,14.07
2019-05-10T14:50:19.190Z,13.70
2019-05-10T14:52:46.933Z,17.10
2019-05-10T14:55:27.899Z,13.85
2019-05-10T14:57:59.496Z,13.60
2019-05-10T15:03:09.454Z,14.63
2019-05-10T15:05:48.928Z,15.10
2019-05-10T15:08:17.417Z,15.13
2019-05-10T15:13:28.577Z,14.35
2019-05-10T15:15:59.579Z,13.83
2019-05-10T15:18:30.309Z,14.80
2019-05-10T15:20:58.895Z,12.85
2019-05-10T15:23:33.527Z,11.78
2019-05-10T15:26:10.361Z,12.05
2019-05-10T15:28:40.311Z,13.00
2019-05-10T15:31:30.907Z,14.28
2019-05-10T15:34:06.568Z,13.45
2019-05-10T15:36:40.937Z,13.65
2019-05-10T15:39:16.611Z,12.82
2019-05-10T15:41:53.566Z,11.70
2019-05-10T15:44:31.531Z,13.05
2019-05-10T15:47:19.769Z,14.50
2019-05-10T15:49:54.604Z,12.40
2019-05-10T15:52:25.856Z,15.08
2019-05-10T15:54:57.095Z,11.43
2019-05-10T15:57:32.279Z,13.48
2019-05-10T16:00:25.311Z,12.75
2019-05-10T16:02:55.888Z,11.05
2019-05-10T16:06:00.892Z,12.90
2019-05-10T16:08:31.929Z,12.05
2019-05-10T16:11:03.703Z,12.13
2019-05-10T16:13:39.334Z,12.53
2019-05-10T16:16:16.457Z,11.57
2019-05-10T16:18:45.171Z,11.22
2019-05-10T16:21:16.835Z,13.78
2019-05-10T16:26:36.736Z,13.72
2019-05-10T16:29:05.306Z,12.35
2019-05-10T16:31:44.680Z,14.70
2019-05-10T16:34:13.266Z,15.58
2019-05-10T16:36:48.123Z,13.75
2019-05-10T16:39:23.649Z,15.53
2019-05-10T16:41:54.947Z,14.78
2019-05-10T16:44:35.529Z,15.15
2019-05-10T16:47:04.275Z,16.07
2019-05-10T16:49:53.352Z,15.93
2019-05-10T16:52:25.832Z,14.95
2019-05-10T16:54:51.794Z,19.07
2019-05-10T16:57:20.500Z,16.45
2019-05-10T16:59:55.001Z,16.82
2019-05-10T17:02:24.629Z,15.10
2019-05-10T17:04:55.973Z,13.68
2019-05-10T17:07:24.663Z,13.00
2019-05-10T17:09:56.373Z,14.13
2019-05-10T17:12:37.263Z,14.18
2019-05-10T17:15:06.792Z,14.83
2019-05-10T17:17:50.394Z,15.25
2019-05-10T17:20:34.759Z,12.98
2019-05-10T17:23:08.933Z,11.75
2019-05-10T17:25:42.877Z,12.33
2019-05-10T17:28:14.187Z,13.98
2019-05-10T17:30:45.500Z,14.30
2019-05-10T17:33:16.930Z,14.95
2019-05-10T17:36:19.784Z,13.43
2019-05-10T17:38:55.456Z,12.45
2019-05-10T17:41:31.689Z,15.32
2019-05-10T17:44:06.756Z,12.68
2019-05-10T17:46:41.059Z,13.78
2019-05-10T17:49:18.461Z,16.27
2019-05-10T17:51:46.541Z,14.15
2019-05-10T17:54:21.469Z,15.08
2019-05-10T17:56:56.066Z,15.13
2019-05-10T17:59:26.595Z,14.70
2019-05-10T18:01:58.244Z,13.43
2019-05-10T18:07:08.597Z,11.73
2019-05-10T18:09:37.206Z,15.63
2019-05-10T18:12:15.691Z,15.85
2019-05-10T18:14:50.155Z,13.88
2019-05-10T18:17:35.262Z,15.25
2019-05-10T18:20:04.921Z,14.73
2019-05-10T18:22:52.898Z,14.78
2019-05-10T18:25:35.463Z,14.10
2019-05-10T18:28:17.152Z,13.98
2019-05-10T18:30:57.395Z,15.70
2019-05-10T18:33:25.975Z,15.32
2019-05-10T18:36:49.238Z,15.50
2019-05-10T18:39:08.929Z,18.20
2019-05-10T18:41:41.397Z,18.30
2019-05-10T18:44:14.236Z,18.77
2019-05-10T18:46:39.747Z,19.57
2019-05-10T18:49:11.411Z,17.52
2019-05-10T18:51:43.831Z,20.20
2019-05-10T18:54:12.844Z,19.62
2019-05-10T18:56:57.623Z,19.40
2019-05-10T18:59:34.056Z,18.20
2019-05-10T19:02:11.902Z,18.48
2019-05-10T19:04:37.679Z,19.27
2019-05-10T19:07:10.432Z,22.45
2019-05-10T19:09:42.253Z,20.00
2019-05-10T19:12:18.956Z,20.10
2019-05-10T19:14:48.407Z,21.33
2019-05-10T19:17:19.684Z,21.73
2019-05-10T19:19:50.967Z,18.40
2019-05-10T19:22:22.567Z,19.27
2019-05-10T19:27:44.745Z,20.50
2019-05-10T19:30:40.424Z,23.15
2019-05-10T19:33:11.543Z,20.25
2019-05-10T19:35:45.996Z,21.02
2019-05-10T19:38:23.110Z,22.40
2019-05-10T19:40:57.775Z,23.50
2019-05-10T19:43:29.394Z,21.00
2019-05-10T19:48:35.643Z,19.65
2019-05-10T19:51:22.858Z,21.62
2019-05-10T19:53:51.736Z,23.20
2019-05-10T19:56:20.336Z,20.97
2019-05-10T19:58:54.680Z,23.20
2019-05-10T20:01:26.409Z,22.60
2019-05-10T20:03:57.827Z,22.67
2019-05-10T20:06:28.635Z,23.70
2019-05-10T20:08:58.410Z,23.25
2019-05-10T20:11:27.160Z,25.65
2019-05-10T20:13:58.537Z,23.50
2019-05-10T20:16:34.388Z,23.90
2019-05-10T20:19:24.490Z,22.17
2019-05-10T20:21:53.056Z,23.75
2019-05-10T20:24:33.714Z,24.32
2019-05-10T20:27:05.073Z,26.17
2019-05-10T20:29:36.685Z,23.92
2019-05-10T20:34:48.472Z,28.90
2019-05-10T20:37:23.343Z,27.40
2019-05-10T20:39:57.911Z,28.73
2019-05-10T20:42:31.596Z,27.50
2019-05-10T20:45:07.322Z,29.18
2019-05-10T20:47:33.235Z,28.70
2019-05-10T20:50:14.754Z,29.60
2019-05-10T20:52:43.356Z,30.57
2019-05-10T20:55:13.380Z,30.85
2019-05-10T20:57:45.012Z,30.65
2019-05-10T21:03:02.521Z,28.77
2019-05-10T21:05:37.149Z,29.20
2019-05-10T21:08:16.932Z,29.18
2019-05-10T21:10:40.331Z,30.02
2019-05-10T21:13:17.964Z,27.90
2019-05-10T21:15:49.368Z,33.42
2019-05-10T21:18:38.949Z,30.37
2019-05-10T21:21:09.528Z,26.48
2019-05-10T21:23:44.098Z,27.93
2019-05-10T21:26:15.761Z,26.93
2019-05-10T21:32:16.275Z,28.60
2019-05-10T21:34:48.033Z,24.80
2019-05-10T21:37:16.627Z,26.17
2019-05-10T21:39:49.448Z,24.20
2019-05-10T21:42:21.099Z,23.10
2019-05-10T21:47:20.589Z,24.50
2019-05-10T21:52:20.136Z,24.23
2019-05-10T21:55:08.284Z,26.10
2019-05-10T21:57:48.925Z,25.82
2019-05-10T22:00:22.749Z,25.57
2019-05-10T22:02:51.311Z,25.95
2019-05-10T22:05:26.033Z,28.85
2019-05-10T22:08:02.637Z,27.05
2019-05-10T22:10:34.913Z,23.92
2019-05-10T22:13:12.705Z,25.77
2019-05-10T22:15:41.333Z,25.48
2019-05-10T22:18:15.848Z,26.48
2019-05-10T22:20:47.120Z,28.25
2019-05-10T22:23:15.716Z,23.50
2019-05-10T22:25:44.315Z,22.98
2019-05-10T22:28:23.863Z,24.35
2019-05-10T22:30:58.475Z,23.80
2019-05-10T22:33:30.065Z,23.80
2019-05-10T22:36:01.442Z,23.18
2019-05-10T22:38:33.153Z,22.62
2019-05-10T22:43:47.291Z,23.12
2019-05-10T22:46:15.895Z,25.35
2019-05-10T22:48:47.539Z,23.42
2019-05-10T22:53:59.602Z,22.27
2019-05-10T22:56:23.260Z,23.55
2019-05-10T22:58:51.881Z,22.27
2019-05-10T23:01:20.583Z,25.57
2019-05-10T23:03:55.071Z,24.43
2019-05-10T23:06:26.800Z,24.85
2019-05-10T23:09:04.954Z,24.55
2019-05-10T23:11:39.276Z,23.87
2019-05-10T23:14:10.521Z,26.05
2019-05-10T23:16:42.378Z,29.05
2019-05-10T23:19:16.833Z,23.42
2019-05-10T23:21:45.422Z,29.50
2019-05-10T23:24:21.533Z,27.22
2019-05-10T23:26:55.923Z,27.48
2019-05-10T23:29:24.515Z,26.60
2019-05-10T23:31:56.150Z,26.77
2019-05-10T23:36:57.632Z,28.32
2019-05-10T23:39:40.350Z,26.82
2019-05-10T23:42:01.847Z,28.73
2019-05-10T23:44:36.360Z,29.07
2019-05-10T23:47:11.236Z,28.87
2019-05-10T23:49:45.975Z,30.75
2019-05-10T23:52:17.631Z,32.48
2019-05-10T23:57:25.491Z,31.55
